Time;durP1;ratioP1;P1;durP2;ratioP2;P2;SDS_P1;SDS_P2;PMS_P1;PMS_P2;Temp;Humidity;BMP_temperature;BMP_pressure;BME280_temperature;BME280_humidity;BME280_pressure;Samples;Min_cycle;Max_cycle;Signal;HPM_P1;HPM_P2
2021/05/29 00:01:46;;;;;;;;;18.00;17.00;;;;;18.82;45.42;98988.94;6199814;28;124718;-62
2021/05/29 00:04:50;;;;;;;;;19.60;17.60;;;;;18.90;45.41;98988.41;6210805;28;125187;-62
2021/05/29 00:07:52;;;;;;;;;20.00;18.00;;;;;18.90;45.41;98989.25;6211053;28;125070;-62
2021/05/29 00:10:58;;;;;;;;;19.00;18.00;;;;;18.90;45.60;98981.06;6210853;28;126147;-64
2021/05/29 00:14:01;;;;;;;;;23.00;20.00;;;;;18.89;45.58;98989.50;6211095;28;125816;-62
2021/05/29 00:17:05;;;;;;;;;20.00;18.00;;;;;18.77;45.40;98983.47;6210595;28;97069;-62
2021/05/29 00:20:09;;;;;;;;;17.75;17.00;;;;;18.76;45.95;98988.16;6200001;28;125294;-62
2021/05/29 00:23:15;;;;;;;;;19.00;18.00;;;;;18.76;45.98;98990.88;6194382;28;126050;-62
2021/05/29 00:26:19;;;;;;;;;18.00;17.00;;;;;18.76;45.98;98996.34;6202962;28;126280;-62
2021/05/29 00:29:21;;;;;;;;;20.00;20.00;;;;;18.76;46.31;98999.06;6202796;28;126598;-62
2021/05/29 00:32:26;;;;;;;;;21.60;19.60;;;;;18.80;46.28;99002.91;6199157;28;126122;-62
2021/05/29 00:35:28;;;;;;;;;21.40;19.40;;;;;18.68;46.57;99001.50;6199738;28;126901;-63
2021/05/29 00:38:31;;;;;;;;;19.00;18.00;;;;;18.73;46.57;98993.31;6201437;28;126313;-62
2021/05/29 00:41:35;;;;;;;;;19.75;18.75;;;;;18.66;46.77;98995.50;6200851;28;125181;-62
2021/05/29 00:44:46;;;;;;;;;20.40;18.60;;;;;18.72;47.00;98988.94;6200065;28;125933;-62
2021/05/29 00:47:48;;;;;;;;;18.40;17.00;;;;;18.66;47.28;98990.06;6194404;28;123999;-62
2021/05/29 00:50:58;;;;;;;;;20.00;18.00;;;;;18.71;47.24;98985.41;6192495;28;126203;-62
2021/05/29 00:54:01;;;;;;;;;19.60;19.20;;;;;18.69;47.23;98975.84;6204763;28;126220;-62
2021/05/29 00:57:05;;;;;;;;;19.50;17.50;;;;;18.68;47.51;98994.13;6201898;28;126307;-64
2021/05/29 01:00:10;;;;;;;;;18.20;17.20;;;;;18.67;47.67;98984.28;6190183;28;125748;-63
2021/05/29 01:03:13;;;;;;;;;20.20;18.60;;;;;18.71;47.71;98987.31;6205150;28;125323;-64
2021/05/29 01:06:16;;;;;;;;;20.00;17.60;;;;;18.69;47.75;98989.50;6208269;28;126480;-63
2021/05/29 01:09:18;;;;;;;;;22.00;19.80;;;;;18.70;47.48;98981.03;6206846;28;123947;-63
2021/05/29 01:12:22;;;;;;;;;19.60;18.00;;;;;18.76;47.67;98992.78;6205704;28;126284;-63
2021/05/29 01:15:28;;;;;;;;;20.00;18.75;;;;;18.75;47.90;99000.16;6205270;28;127226;-63
2021/05/29 01:18:31;;;;;;;;;20.00;19.60;;;;;18.78;47.81;98982.41;6205967;28;125923;-63
2021/05/29 01:21:34;;;;;;;;;20.40;18.80;;;;;18.84;47.77;98984.03;6209685;28;124892;-63
2021/05/29 01:24:39;;;;;;;;;18.00;17.00;;;;;18.82;48.07;98978.03;6186606;28;125163;-63
2021/05/29 01:27:43;;;;;;;;;19.80;18.80;;;;;18.75;48.13;98977.50;6202659;28;124568;-63
2021/05/29 01:30:50;;;;;;;;;22.00;20.50;;;;;18.49;49.14;98984.78;6203898;28;125953;-63
2021/05/29 01:33:57;;;;;;;;;22.50;21.25;;;;;18.55;48.91;98973.66;6191451;28;126427;-63
2021/05/29 01:37:01;;;;;;;;;23.50;21.00;;;;;18.52;48.99;98974.16;6204049;28;126554;-63
2021/05/29 01:40:07;;;;;;;;;24.20;22.00;;;;;18.49;49.31;98976.59;6194551;28;126141;-62
2021/05/29 01:43:12;;;;;;;;;22.00;21.00;;;;;18.42;49.55;98971.41;6209740;28;125983;-62
2021/05/29 01:46:17;;;;;;;;;22.00;19.00;;;;;18.30;50.07;98979.03;6209595;28;126603;-62
2021/05/29 01:49:20;;;;;;;;;20.75;19.75;;;;;18.37;49.80;98978.78;6187972;28;123567;-62
2021/05/29 01:52:43;;;;;;;;;23.20;22.80;;;;;18.36;50.04;98977.13;6209766;28;124865;-62
2021/05/29 01:55:47;;;;;;;;;21.80;19.00;;;;;18.34;50.26;98968.38;6209206;28;124658;-62
2021/05/29 01:58:50;;;;;;;;;26.50;23.00;;;;;18.36;50.25;98974.41;6210230;28;126539;-62
2021/05/29 02:01:53;;;;;;;;;28.40;25.40;;;;;18.29;50.63;98979.28;6213606;28;124326;-63
2021/05/29 02:04:55;;;;;;;;;22.00;21.00;;;;;18.33;50.58;98970.28;6213425;28;125000;-62
2021/05/29 02:07:59;;;;;;;;;26.50;22.75;;;;;18.30;50.92;98973.56;6213629;28;125289;-62
2021/05/29 02:11:04;;;;;;;;;25.00;24.00;;;;;18.32;50.65;98965.94;6211294;28;126211;-63
2021/05/29 02:14:07;;;;;;;;;28.80;25.00;;;;;18.24;51.27;98968.34;6211803;28;125779;-62
2021/05/29 02:17:13;;;;;;;;;29.40;25.00;;;;;18.19;51.33;98964.53;6210610;28;125249;-63
2021/05/29 02:20:17;;;;;;;;;24.40;22.00;;;;;18.26;51.13;98967.03;6211307;28;126909;-63
2021/05/29 02:23:22;;;;;;;;;27.50;25.00;;;;;18.20;51.61;98959.91;6213469;28;124042;-62
2021/05/29 02:26:26;;;;;;;;;26.40;23.00;;;;;18.13;51.68;98957.41;6210622;28;124950;-62
2021/05/29 02:29:28;;;;;;;;;25.25;23.25;;;;;18.17;51.80;98960.44;6209615;28;124701;-62
2021/05/29 02:32:31;;;;;;;;;24.00;23.20;;;;;18.16;51.73;98956.91;6211507;28;126795;-62
2021/05/29 02:35:34;;;;;;;;;26.00;23.20;;;;;18.15;52.07;98965.34;6211120;28;126807;-62
2021/05/29 02:38:38;;;;;;;;;30.00;27.00;;;;;18.12;52.13;98955.81;6211464;28;125902;-62
2021/05/29 02:41:41;;;;;;;;;28.80;26.40;;;;;18.15;52.14;98954.44;6211810;28;124334;-62
2021/05/29 02:44:45;;;;;;;;;30.40;27.00;;;;;18.03;52.02;98935.56;6213306;28;126583;-62
2021/05/29 02:47:47;;;;;;;;;29.00;27.00;;;;;18.24;51.70;98952.81;6212328;28;126321;-62
2021/05/29 02:50:50;;;;;;;;;29.00;26.00;;;;;18.27;51.70;98959.66;6211453;28;126371;-62
2021/05/29 02:53:53;;;;;;;;;29.00;26.60;;;;;18.27;51.74;98956.94;6212840;28;126536;-62
2021/05/29 02:56:56;;;;;;;;;34.00;30.00;;;;;18.29;51.55;98962.91;6212757;28;125232;-62
2021/05/29 02:59:59;;;;;;;;;29.60;25.60;;;;;18.11;51.48;98924.16;6212966;28;125930;-62
2021/05/29 03:03:04;;;;;;;;;27.80;25.40;;;;;18.33;51.70;98961.28;6212447;28;126032;-62
2021/05/29 03:06:06;;;;;;;;;29.33;26.33;;;;;18.38;51.78;98958.56;6212073;28;125713;-62
2021/05/29 03:09:09;;;;;;;;;31.40;27.00;;;;;18.44;51.40;98954.75;6227301;28;124854;-62
2021/05/29 03:12:13;;;;;;;;;28.60;26.00;;;;;18.53;50.96;98961.31;6211588;28;124915;-62
2021/05/29 03:15:18;;;;;;;;;26.60;25.00;;;;;18.56;50.85;98955.38;6202996;28;126280;-62
2021/05/29 03:18:21;;;;;;;;;30.25;24.50;;;;;18.58;51.01;98951.25;6206696;28;125478;-62
2021/05/29 03:21:23;;;;;;;;;26.00;24.60;;;;;18.52;50.97;98957.75;6203801;28;125079;-62
2021/05/29 03:24:26;;;;;;;;;26.00;24.00;;;;;18.62;50.95;98956.97;6207390;28;125822;-62
2021/05/29 03:27:30;;;;;;;;;29.25;26.25;;;;;18.63;50.98;98955.06;6207967;28;126252;-62
2021/05/29 03:30:33;;;;;;;;;26.00;24.80;;;;;18.62;50.89;98956.97;6209450;28;124456;-62
2021/05/29 03:33:36;;;;;;;;;24.75;23.00;;;;;18.68;51.11;98964.09;6222314;28;125149;-62
2021/05/29 03:36:39;;;;;;;;;26.00;24.00;;;;;18.67;50.97;98958.94;6207454;28;125057;-62
2021/05/29 03:39:41;;;;;;;;;26.00;22.00;;;;;18.62;50.72;98962.44;6207292;28;127387;-62
2021/05/29 03:42:46;;;;;;;;;25.00;24.00;;;;;18.65;50.62;98961.91;6208664;28;126243;-62
2021/05/29 03:45:48;;;;;;;;;25.00;24.00;;;;;18.48;50.89;98967.59;6208811;28;124980;-62
2021/05/29 03:48:51;;;;;;;;;24.50;23.00;;;;;18.52;50.54;98955.03;6207874;28;126374;-62
2021/05/29 03:51:54;;;;;;;;;27.25;24.75;;;;;18.66;50.93;98963.56;6209241;28;125912;-62
2021/05/29 03:54:56;;;;;;;;;23.20;21.20;;;;;18.70;50.38;98967.38;6211362;28;125703;-62
2021/05/29 03:58:00;;;;;;;;;23.00;20.20;;;;;18.78;50.54;98963.28;6210563;28;126276;-62
2021/05/29 04:01:03;;;;;;;;;20.40;20.40;;;;;18.74;50.44;98973.94;6206047;28;126579;-61
2021/05/29 04:04:06;;;;;;;;;25.00;23.40;;;;;18.75;50.44;98975.59;6209990;28;124931;-62
2021/05/29 04:07:09;;;;;;;;;25.40;24.00;;;;;18.81;50.41;98974.50;6211420;28;125848;-63
2021/05/29 04:10:14;;;;;;;;;25.00;23.00;;;;;18.82;50.11;98970.66;6208611;28;126771;-63
2021/05/29 04:13:17;;;;;;;;;21.00;20.00;;;;;18.80;49.81;98981.03;6208899;28;125963;-63
2021/05/29 04:16:21;;;;;;;;;19.00;16.60;;;;;18.86;49.63;98970.94;6209320;28;126372;-63
2021/05/29 04:19:24;;;;;;;;;17.40;16.40;;;;;18.89;49.29;98976.66;6210246;28;126464;-63
2021/05/29 04:22:26;;;;;;;;;14.60;14.00;;;;;18.89;48.71;98978.59;6210642;28;126329;-62
2021/05/29 04:25:30;;;;;;;;;14.60;14.00;;;;;18.88;48.99;98977.75;6198332;28;126255;-62
2021/05/29 04:28:34;;;;;;;;;16.00;14.00;;;;;18.91;48.81;98981.88;6211186;28;124763;-62
2021/05/29 04:31:37;;;;;;;;;16.40;15.40;;;;;18.92;49.27;98980.75;6211191;28;124831;-62
2021/05/29 04:34:40;;;;;;;;;14.60;13.60;;;;;18.89;48.71;98981.31;6210981;28;126275;-62
2021/05/29 04:37:43;;;;;;;;;12.00;11.00;;;;;18.92;48.57;98976.13;6211030;28;126266;-62
2021/05/29 04:40:46;;;;;;;;;13.40;12.40;;;;;18.87;48.32;98989.78;6211043;28;128142;-62
2021/05/29 04:43:50;;;;;;;;;12.00;11.00;;;;;18.83;48.22;98991.41;6210779;28;125555;-62
2021/05/29 04:46:53;;;;;;;;;11.40;11.00;;;;;18.78;47.85;98987.84;6207601;28;124974;-63
2021/05/29 04:49:56;;;;;;;;;10.00;10.00;;;;;18.77;47.81;98988.94;6210238;28;126214;-62
2021/05/29 04:52:58;;;;;;;;;11.00;10.60;;;;;18.72;47.87;98991.66;6210472;28;124608;-62
2021/05/29 04:56:01;;;;;;;;;7.00;7.00;;;;;18.60;46.89;98991.94;6210943;28;125135;-62
2021/05/29 04:59:05;;;;;;;;;8.20;6.80;;;;;18.59;46.30;99003.97;6209204;28;123429;-62
2021/05/29 05:02:08;;;;;;;;;7.00;7.00;;;;;18.54;46.16;99006.69;6210361;28;124771;-62
2021/05/29 05:05:11;;;;;;;;;6.40;6.40;;;;;18.43;46.59;99003.06;6210370;28;127525;-62
2021/05/29 05:08:14;;;;;;;;;7.00;6.67;;;;;18.43;46.42;99005.81;6210789;28;127133;-62
2021/05/29 05:11:16;;;;;;;;;7.00;6.00;;;;;18.45;46.42;98989.16;6210280;28;124619;-63
2021/05/29 05:14:20;;;;;;;;;4.00;4.00;;;;;18.58;46.20;99010.50;6225903;28;126309;-62
2021/05/29 05:17:23;;;;;;;;;4.00;4.00;;;;;18.59;45.81;99004.78;6210989;28;124613;-63
2021/05/29 05:20:26;;;;;;;;;3.00;3.00;;;;;18.63;45.46;99010.50;6204136;28;126439;-62
2021/05/29 05:23:29;;;;;;;;;3.00;3.00;;;;;18.62;45.38;99011.59;6209431;28;122892;-62
2021/05/29 05:26:31;;;;;;;;;4.00;3.40;;;;;18.65;45.18;99012.97;6193000;28;125676;-62
2021/05/29 05:29:35;;;;;;;;;4.00;4.00;;;;;18.52;46.08;98998.72;6208065;28;126162;-62
2021/05/29 05:32:39;;;;;;;;;3.00;3.00;;;;;18.62;46.02;99008.88;6209309;28;124044;-62
2021/05/29 05:35:43;;;;;;;;;4.80;4.00;;;;;18.61;45.54;99015.44;6213532;28;126329;-62
2021/05/29 05:38:46;;;;;;;;;3.80;3.00;;;;;18.63;45.62;99015.97;6204318;28;126095;-62
2021/05/29 05:41:49;;;;;;;;;3.00;3.00;;;;;18.71;45.53;99014.63;6211939;28;127230;-62
2021/05/29 05:44:52;;;;;;;;;4.40;4.00;;;;;18.69;45.79;99023.09;6203849;28;126328;-62
2021/05/29 05:47:55;;;;;;;;;3.00;3.00;;;;;18.74;46.05;99019.53;6213636;28;125226;-63
2021/05/29 05:50:59;;;;;;;;;4.00;4.00;;;;;18.87;46.32;99021.72;6206959;28;125205;-62
2021/05/29 05:54:02;;;;;;;;;4.00;4.00;;;;;18.88;46.29;99031.56;6209732;28;126289;-63
2021/05/29 05:57:05;;;;;;;;;5.80;5.00;;;;;18.91;46.93;99023.66;6207127;28;124898;-62
2021/05/29 06:00:12;;;;;;;;;7.00;7.00;;;;;18.97;47.34;99030.75;6219293;28;125303;-62
2021/05/29 06:03:15;;;;;;;;;7.00;6.00;;;;;19.02;47.30;99027.19;6197124;28;124544;-62
2021/05/29 06:06:17;;;;;;;;;8.00;7.00;;;;;19.06;47.04;99022.03;6195762;28;125880;-63
2021/05/29 06:09:20;;;;;;;;;8.00;7.00;;;;;19.04;46.84;99030.50;6194925;28;126118;-62
2021/05/29 06:12:23;;;;;;;;;6.00;6.00;;;;;19.06;47.34;99024.78;6208010;28;125988;-63
2021/05/29 06:19:10;;;;;;;;;7.00;7.00;;;;;18.94;47.88;99000.44;6193845;28;126423;-64
2021/05/29 06:22:12;;;;;;;;;9.00;7.00;;;;;19.25;47.29;99034.88;6199824;28;126078;-64
2021/05/29 06:25:16;;;;;;;;;6.00;6.00;;;;;19.33;47.41;99030.75;6204317;28;126180;-62
2021/05/29 06:28:19;;;;;;;;;6.50;6.00;;;;;19.27;47.22;99018.19;6204700;28;124734;-62
2021/05/29 06:31:22;;;;;;;;;7.40;7.40;;;;;19.35;46.27;99032.09;6196273;28;124805;-63
2021/05/29 06:34:25;;;;;;;;;9.00;9.00;;;;;19.44;45.97;99037.88;6205330;28;124883;-64
2021/05/29 06:37:28;;;;;;;;;8.80;8.00;;;;;19.51;46.10;99043.88;6204609;28;126066;-63
2021/05/29 06:40:31;;;;;;;;;9.00;8.40;;;;;19.53;45.67;99043.63;6207533;28;125103;-62
2021/05/29 06:43:34;;;;;;;;;9.40;8.00;;;;;19.56;45.25;99049.34;6202433;28;126501;-62
2021/05/29 06:46:40;;;;;;;;;7.60;7.00;;;;;19.57;45.51;99041.97;6207957;28;126659;-64
2021/05/29 06:49:43;;;;;;;;;9.00;8.00;;;;;19.57;44.98;99045.50;6209313;28;123916;-63
2021/05/29 06:52:49;;;;;;;;;8.00;8.00;;;;;19.57;45.61;99044.69;6199649;28;126156;-62
2021/05/29 06:59:12;;;;;;;;;8.00;8.00;;;;;19.59;44.95;99057.00;6192419;28;125955;-62
2021/05/29 07:02:15;;;;;;;;;8.40;8.00;;;;;19.57;45.61;99050.16;6194307;28;126445;-62
2021/05/29 07:05:18;;;;;;;;;8.40;8.00;;;;;19.49;45.88;99048.00;6211094;28;123816;-63
2021/05/29 07:08:21;;;;;;;;;11.00;9.00;;;;;19.37;45.42;99057.25;6194327;28;126613;-63
2021/05/29 07:11:24;;;;;;;;;8.60;8.00;;;;;19.30;46.16;99053.97;6192897;28;125059;-63
2021/05/29 07:14:27;;;;;;;;;7.60;7.60;;;;;19.26;46.07;99025.56;6191770;28;124007;-63
2021/05/29 07:17:32;;;;;;;;;10.75;9.00;;;;;19.39;46.01;99057.00;6190927;28;125483;-64
2021/05/29 07:20:35;;;;;;;;;7.00;6.00;;;;;19.42;45.17;99056.44;6194849;28;125802;-63
2021/05/29 07:23:37;;;;;;;;;8.00;7.00;;;;;19.39;45.20;99065.19;6202852;28;126217;-62
2021/05/29 07:26:41;;;;;;;;;9.00;7.00;;;;;19.39;44.76;99062.47;6211782;28;125374;-62
2021/05/29 07:29:43;;;;;;;;;9.00;8.25;;;;;19.38;45.26;99064.38;6209171;28;125244;-62
2021/05/29 07:32:47;;;;;;;;;10.00;9.00;;;;;18.92;45.16;98969.81;6211500;28;125339;-62
2021/05/29 07:35:50;;;;;;;;;5.60;5.00;;;;;19.40;44.77;99053.19;6208764;28;125859;-62
2021/05/29 07:38:53;;;;;;;;;10.00;7.00;;;;;19.52;44.87;99067.41;6208444;28;126058;-62
2021/05/29 07:41:56;;;;;;;;;5.00;5.00;;;;;19.61;43.48;99062.19;6201409;28;126428;-67
2021/05/29 07:44:58;;;;;;;;;6.00;6.00;;;;;19.71;43.70;99062.16;6202192;28;126586;-60
2021/05/29 07:48:04;;;;;;;;;6.50;6.50;;;;;19.75;43.43;99057.78;6201492;28;123726;-61
2021/05/29 07:51:07;;;;;;;;;7.80;6.00;;;;;19.76;43.42;99057.50;6204694;28;125739;-64
2021/05/29 07:54:12;;;;;;;;;6.20;6.20;;;;;19.76;43.56;99056.69;6206325;28;126628;-62
2021/05/29 07:57:15;;;;;;;;;4.20;4.20;;;;;19.59;43.02;99053.44;6209070;28;126187;-63
2021/05/29 08:00:23;;;;;;;;;5.80;5.40;;;;;19.56;43.44;99064.94;6203099;28;125062;-63
2021/05/29 08:03:29;;;;;;;;;5.00;4.20;;;;;19.44;43.63;99067.97;6210961;28;124649;-62
2021/05/29 08:06:34;;;;;;;;;5.00;5.00;;;;;19.44;43.63;99067.97;6200560;28;124898;-63
2021/05/29 08:09:38;;;;;;;;;6.00;6.00;;;;;19.39;43.63;99073.41;6205553;28;123870;-62
2021/05/29 08:12:41;;;;;;;;;6.00;5.40;;;;;19.26;43.73;99058.34;6210953;28;126929;-62
2021/05/29 08:15:45;;;;;;;;;6.00;5.00;;;;;19.30;44.28;99066.84;6220865;28;124393;-62
2021/05/29 08:18:49;;;;;;;;;5.75;5.50;;;;;19.28;44.10;99069.03;6207427;28;126368;-62
2021/05/29 08:21:52;;;;;;;;;5.00;4.60;;;;;19.19;43.99;99063.28;6210223;28;124955;-62
2021/05/29 08:24:54;;;;;;;;;6.00;6.00;;;;;19.31;44.78;99071.19;6210248;28;125291;-62
2021/05/29 08:27:57;;;;;;;;;6.00;6.00;;;;;19.22;45.97;99070.94;6207271;28;127745;-62
2021/05/29 08:31:00;;;;;;;;;6.50;5.50;;;;;19.29;45.58;99068.75;6192164;28;125475;-62
2021/05/29 08:34:05;;;;;;;;;7.33;7.00;;;;;19.46;45.40;99068.50;6204242;28;126016;-62
2021/05/29 08:37:07;;;;;;;;;7.60;7.00;;;;;19.58;45.08;99068.22;6207413;28;124870;-62
2021/05/29 08:40:11;;;;;;;;;6.00;6.00;;;;;19.51;44.28;99071.22;6204269;28;124193;-62
2021/05/29 08:43:14;;;;;;;;;7.00;6.00;;;;;19.32;44.39;99070.13;6199812;28;124991;-62
2021/05/29 08:46:18;;;;;;;;;7.00;6.60;;;;;19.37;44.83;99073.66;6205689;28;125160;-62
2021/05/29 08:49:21;;;;;;;;;7.20;7.20;;;;;19.43;45.13;99069.84;6209158;28;125069;-61
2021/05/29 08:52:24;;;;;;;;;9.00;7.40;;;;;19.67;44.56;99066.56;6210223;28;126795;-62
2021/05/29 08:55:26;;;;;;;;;7.00;7.00;;;;;19.81;44.56;99059.41;6203072;28;125286;-61
2021/05/29 08:58:30;;;;;;;;;6.25;5.50;;;;;19.97;43.93;99069.22;6202016;28;125347;-62
2021/05/29 09:01:33;;;;;;;;;8.00;8.00;;;;;20.12;43.71;99071.09;6204927;28;125616;-62
2021/05/29 09:04:56;;;;;;;;;7.60;7.00;;;;;20.04;43.21;99064.25;6204178;28;124593;-61
2021/05/29 09:08:06;;;;;;;;;6.00;6.00;;;;;20.19;43.23;99061.47;6206930;28;126543;-62
2021/05/29 09:11:09;;;;;;;;;10.00;8.00;;;;;20.25;43.38;99056.78;6210630;28;124063;-62
2021/05/29 09:14:36;;;;;;;;;12.00;11.00;;;;;20.43;43.04;99064.41;6209947;28;124128;-62
2021/05/29 09:17:38;;;;;;;;;9.20;9.20;;;;;20.61;42.87;99061.03;6211291;28;123620;-61
2021/05/29 09:20:42;;;;;;;;;8.80;7.80;;;;;20.83;42.16;99060.59;6197414;28;128205;-61
2021/05/29 09:23:46;;;;;;;;;8.50;8.50;;;;;21.02;41.84;99055.25;6200067;28;124778;-61
2021/05/29 09:26:51;;;;;;;;;9.00;7.00;;;;;21.27;41.85;99048.78;6201480;28;126045;-61
2021/05/29 09:29:54;;;;;;;;;8.60;8.00;;;;;21.50;41.37;99048.84;6196571;28;124724;-61
2021/05/29 09:33:09;;;;;;;;;7.00;6.00;;;;;21.77;39.95;99055.72;6201280;28;125020;-61
2021/05/29 09:36:14;;;;;;;;;8.00;7.60;;;;;21.78;40.03;99046.38;6205156;28;125753;-62
2021/05/29 09:39:20;;;;;;;;;9.80;8.80;;;;;21.87;39.62;99045.47;6206392;28;125792;-60
2021/05/29 09:42:27;;;;;;;;;9.00;8.00;;;;;21.88;39.85;99046.28;6217675;28;124904;-61
2021/05/29 09:45:30;;;;;;;;;9.00;8.00;;;;;21.91;38.90;99042.94;6198355;28;124342;-61
2021/05/29 09:48:34;;;;;;;;;7.40;6.80;;;;;21.81;39.31;99034.81;6206354;28;127305;-61
2021/05/29 09:51:38;;;;;;;;;8.00;6.20;;;;;21.77;40.39;99044.75;6207040;28;125702;-61
2021/05/29 09:54:49;;;;;;;;;9.00;8.00;;;;;21.58;40.98;99037.25;6190363;28;127578;-63
2021/05/29 09:57:56;;;;;;;;;9.00;8.25;;;;;21.37;42.00;99041.28;6190912;28;126207;-62
2021/05/29 10:00:58;;;;;;;;;10.00;9.00;;;;;20.93;43.21;99030.41;6194118;28;125388;-61
2021/05/29 10:04:04;;;;;;;;;10.00;9.00;;;;;20.59;43.93;99037.75;6198576;28;126226;-61
2021/05/29 10:07:10;;;;;;;;;9.00;9.00;;;;;20.44;44.49;99044.13;6191869;28;125923;-61
2021/05/29 10:10:14;;;;;;;;;9.40;9.40;;;;;20.27;45.31;99040.91;6226888;28;125151;-61
2021/05/29 10:13:17;;;;;;;;;11.00;9.00;;;;;20.13;46.16;99039.88;6211969;28;125091;-62
2021/05/29 10:16:21;;;;;;;;;9.00;9.00;;;;;20.12;45.01;99038.25;6209936;28;125208;-61
2021/05/29 10:19:24;;;;;;;;;9.60;8.60;;;;;20.26;45.96;99039.28;6212488;28;125061;-62
2021/05/29 10:22:30;;;;;;;;;7.00;7.00;;;;;20.19;44.41;99047.78;6203817;28;124959;-61
2021/05/29 10:25:34;;;;;;;;;7.00;6.50;;;;;20.47;45.63;99037.28;6199996;28;124912;-61
2021/05/29 10:28:39;;;;;;;;;8.00;7.00;;;;;20.63;43.80;99031.41;6209528;28;125316;-61
2021/05/29 10:31:42;;;;;;;;;11.40;10.40;;;;;20.78;43.31;99030.50;6207715;28;124538;-62
2021/05/29 10:34:57;;;;;;;;;8.00;8.00;;;;;20.98;42.80;99038.59;6210509;28;126394;-62
2021/05/29 10:38:01;;;;;;;;;11.00;9.00;;;;;20.95;43.58;99024.63;6211648;28;126249;-62
2021/05/29 10:41:03;;;;;;;;;7.00;7.00;;;;;20.86;41.75;99024.44;6202920;28;125046;-62
2021/05/29 10:44:28;;;;;;;;;7.50;7.00;;;;;20.73;42.43;99025.88;6205919;28;128345;-62
2021/05/29 10:47:31;;;;;;;;;7.80;7.00;;;;;20.80;43.13;99030.22;6209169;28;124783;-62
2021/05/29 10:51:00;;;;;;;;;7.00;7.00;;;;;20.95;42.53;99030.94;6209601;28;125453;-62
2021/05/29 10:54:11;;;;;;;;;8.33;8.33;;;;;21.32;42.70;99022.16;6206665;28;125747;-62
2021/05/29 10:57:14;;;;;;;;;7.25;7.25;;;;;21.58;42.83;99012.56;6206628;28;125275;-62
2021/05/29 11:00:50;;;;;;;;;8.80;8.20;;;;;21.54;40.41;99003.28;6211861;28;126927;-62
2021/05/29 11:04:23;;;;;;;;;6.00;6.00;;;;;21.92;39.71;99008.91;6201094;28;125045;-62
2021/05/29 11:07:27;;;;;;;;;5.20;5.20;;;;;22.34;38.23;98977.88;6200110;28;125864;-63
2021/05/29 11:10:31;;;;;;;;;7.00;7.00;;;;;22.98;36.16;99004.69;6195037;28;125618;-62
2021/05/29 11:14:00;;;;;;;;;20.20;20.00;;;;;23.39;35.75;99002.09;6202418;28;126666;-62
2021/05/29 11:17:13;;;;;;;;;5.00;5.00;;;;;23.44;32.86;98998.41;6204957;28;125524;-62
2021/05/29 11:20:18;;;;;;;;;4.00;4.00;;;;;23.69;31.90;99009.00;6197744;28;125956;-61
2021/05/29 11:23:27;;;;;;;;;7.00;5.60;;;;;23.92;33.08;99007.97;6205392;28;123874;-62
2021/05/29 11:26:31;;;;;;;;;6.20;5.20;;;;;23.96;32.60;99002.66;6205670;28;124958;-62
2021/05/29 11:29:50;;;;;;;;;5.00;5.00;;;;;23.72;31.79;98956.06;6208728;28;126947;-61
2021/05/29 11:32:57;;;;;;;;;4.60;4.20;;;;;23.84;31.09;99000.44;6200587;28;125937;-62
2021/05/29 11:36:00;;;;;;;;;3.25;3.25;;;;;23.82;30.96;98994.41;6211192;28;124867;-62
2021/05/29 11:39:09;;;;;;;;;4.60;3.00;;;;;23.73;30.95;98997.06;6195593;28;124752;-62
2021/05/29 11:42:13;;;;;;;;;3.60;3.00;;;;;23.77;31.42;98988.19;6206921;28;126531;-62
2021/05/29 11:45:16;;;;;;;;;4.00;4.00;;;;;23.58;31.49;98985.53;6202288;28;125065;-61
2021/05/29 11:48:28;;;;;;;;;4.00;4.00;;;;;23.46;31.94;98986.00;6209316;28;124055;-61
2021/05/29 11:51:34;;;;;;;;;5.00;5.00;;;;;23.16;33.04;98984.63;6193656;28;124022;-61
2021/05/29 11:54:37;;;;;;;;;4.00;4.00;;;;;23.16;34.67;98984.63;6192839;28;124766;-64
2021/05/29 11:57:58;;;;;;;;;5.00;5.00;;;;;23.28;34.74;98984.13;6206528;28;125206;-62
2021/05/29 12:01:02;;;;;;;;;4.00;3.80;;;;;23.31;34.20;98969.78;6202082;28;125841;-62
2021/05/29 12:04:06;;;;;;;;;5.50;5.50;;;;;23.63;34.04;98978.00;6202502;28;126849;-62
2021/05/29 12:07:08;;;;;;;;;5.40;5.40;;;;;23.74;33.08;98970.34;6209668;28;125420;-62
2021/05/29 12:10:11;;;;;;;;;7.00;7.00;;;;;23.82;32.86;98975.13;6208746;28;126365;-62
2021/05/29 12:13:28;;;;;;;;;7.50;7.50;;;;;23.67;33.45;98950.66;6206082;28;127034;-62
2021/05/29 12:16:33;;;;;;;;;12.00;11.00;;;;;23.49;33.07;98987.34;6199982;28;124932;-62
2021/05/29 12:19:38;;;;;;;;;26.80;24.60;;;;;23.25;33.76;98993.81;6203626;28;126027;-62
2021/05/29 12:22:40;;;;;;;;;4.00;3.00;;;;;22.82;32.04;99014.34;6204185;28;124568;-62
2021/05/29 12:25:45;;;;;;;;;4.00;3.40;;;;;22.48;33.05;99019.22;6202465;28;126765;-62
2021/05/29 12:28:49;;;;;;;;;4.00;4.00;;;;;21.89;33.91;99010.28;6197360;28;123358;-62
2021/05/29 12:31:54;;;;;;;;;3.00;3.00;;;;;21.36;36.23;99003.19;6203261;28;125056;-63
2021/05/29 12:34:57;;;;;;;;;4.00;4.00;;;;;20.93;37.82;99018.59;6200025;28;125735;-63
2021/05/29 12:38:10;;;;;;;;;4.40;3.60;;;;;20.61;37.93;99021.88;6188368;28;125079;-62
2021/05/29 12:41:15;;;;;;;;;7.75;6.75;;;;;20.19;39.05;99019.59;6203756;28;125031;-62
2021/05/29 12:44:18;;;;;;;;;3.00;3.00;;;;;19.83;39.86;99014.28;6204451;28;126143;-62
2021/05/29 12:47:23;;;;;;;;;17.00;16.60;;;;;19.54;41.18;99017.91;6200636;28;124177;-63
2021/05/29 12:50:27;;;;;;;;;9.00;7.50;;;;;19.27;41.65;99018.19;6209188;28;124674;-62
2021/05/29 12:53:33;;;;;;;;;1.80;1.80;;;;;19.21;42.62;99033.75;6203880;28;126359;-63
2021/05/29 12:56:37;;;;;;;;;28.20;27.40;;;;;19.03;43.28;99013.28;6199724;28;124903;-62
2021/05/29 12:59:40;;;;;;;;;9.00;9.00;;;;;18.77;40.90;98984.31;6198287;28;125517;-63
2021/05/29 13:07:23;;;;;;;;;27.60;25.60;;;;;18.97;40.29;99006.16;6203640;28;123926;-61
2021/05/29 13:09:32;;;;;;;;;39.20;33.80;;;;;18.87;41.72;99006.16;6204698;28;126208;-61
2021/05/29 13:12:36;;;;;;;;;53.00;44.00;;;;;18.95;43.94;99007.53;6204006;28;125515;-61
2021/05/29 13:15:40;;;;;;;;;18.00;17.00;;;;;19.12;39.94;99012.72;6194533;28;124612;-62
2021/05/29 13:19:00;;;;;;;;;6.00;6.00;;;;;19.38;42.53;99009.69;6193083;28;125171;-62
2021/05/29 13:22:03;;;;;;;;;4.00;3.60;;;;;19.62;43.66;99009.13;6220020;27;126117;-62
2021/05/29 13:25:09;;;;;;;;;4.00;3.00;;;;;19.49;45.05;98968.69;6204524;28;125881;-63
2021/05/29 13:28:15;;;;;;;;;4.60;3.00;;;;;19.97;45.56;99000.00;6220229;28;125710;-62
2021/05/29 13:31:19;;;;;;;;;2.75;2.75;;;;;20.19;44.60;99016.84;6203572;28;125932;-63
2021/05/29 13:34:22;;;;;;;;;3.00;3.00;;;;;20.38;43.06;98995.16;6198680;28;124713;-62
2021/05/29 13:37:25;;;;;;;;;3.00;3.00;;;;;20.68;41.09;98998.50;6205103;28;126979;-62
2021/05/29 13:40:29;;;;;;;;;3.00;2.40;;;;;20.68;40.71;98976.59;6209209;28;125128;-62
2021/05/29 13:43:32;;;;;;;;;3.00;3.00;;;;;20.71;41.85;98986.19;6209418;28;124207;-63
2021/05/29 13:46:36;;;;;;;;;3.00;3.00;;;;;20.73;39.44;98989.44;6207187;28;126093;-63
2021/05/29 13:49:39;;;;;;;;;3.00;2.67;;;;;20.88;39.85;98986.59;6207540;28;125099;-62
2021/05/29 13:52:42;;;;;;;;;3.00;3.00;;;;;21.07;38.68;98986.69;6198556;28;126526;-62
2021/05/29 13:55:45;;;;;;;;;4.00;3.00;;;;;21.24;38.19;98978.09;6206783;28;124308;-62
2021/05/29 13:58:49;;;;;;;;;2.40;2.00;;;;;21.36;37.42;98978.50;6208605;28;126352;-62
2021/05/29 14:01:53;;;;;;;;;4.00;4.00;;;;;21.33;36.02;98977.16;6208320;28;126056;-62
2021/05/29 14:04:56;;;;;;;;;4.00;4.00;;;;;21.38;37.23;98979.03;6204059;28;124552;-63
2021/05/29 14:08:00;;;;;;;;;2.00;2.00;;;;;21.56;37.32;98976.38;6192274;28;126483;-61
2021/05/29 14:11:03;;;;;;;;;2.80;2.80;;;;;21.67;36.06;98981.75;6191652;28;124950;-62
2021/05/29 14:14:06;;;;;;;;;3.00;3.00;;;;;21.78;35.91;98994.25;6197396;28;124714;-61
2021/05/29 14:17:12;;;;;;;;;4.00;4.00;;;;;21.69;36.46;98985.84;6203635;28;125981;-61
2021/05/29 14:20:15;;;;;;;;;5.80;5.00;;;;;21.50;35.79;98983.00;6191618;28;125919;-63
2021/05/29 14:23:18;;;;;;;;;5.00;5.00;;;;;21.38;36.18;98979.03;6193463;28;125002;-63